sensor_id;sensor_type;location;lat;lon;timestamp;temperature;humidity
34406;DHT22;20658;45.630;8.886;2022-11-30T00:01:38;4.90;99.90
34406;DHT22;20658;45.630;8.886;2022-11-30T00:04:07;4.60;99.90
34406;DHT22;20658;45.630;8.886;2022-11-30T00:06:35;4.90;99.90
34406;DHT22;20658;45.630;8.886;2022-11-30T00:09:04;4.60;99.90
34406;DHT22;20658;45.630;8.886;2022-11-30T00:11:32;4.80;99.90
34406;DHT22;20658;45.630;8.886;2022-11-30T00:14:01;4.50;99.90
34406;DHT22;20658;45.630;8.886;2022-11-30T00:16:31;4.50;99.90
34406;DHT22;20658;45.630;8.886;2022-11-30T00:19:00;4.50;99.90
34406;DHT22;20658;45.630;8.886;2022-11-30T00:21:28;4.40;99.90
34406;DHT22;20658;45.630;8.886;2022-11-30T00:23:57;4.40;99.90
34406;DHT22;20658;45.630;8.886;2022-11-30T00:26:26;4.40;99.90
34406;DHT22;20658;45.630;8.886;2022-11-30T00:28:54;4.30;99.90
34406;DHT22;20658;45.630;8.886;2022-11-30T00:31:23;4.30;99.90
34406;DHT22;20658;45.630;8.886;2022-11-30T00:33:53;4.30;99.90
34406;DHT22;20658;45.630;8.886;2022-11-30T00:36:21;4.30;99.90
34406;DHT22;20658;45.630;8.886;2022-11-30T00:38:50;4.20;99.90
34406;DHT22;20658;45.630;8.886;2022-11-30T00:41:24;4.20;99.90
34406;DHT22;20658;45.630;8.886;2022-11-30T00:43:52;4.20;99.90
34406;DHT22;20658;45.630;8.886;2022-11-30T00:46:21;4.10;99.90
34406;DHT22;20658;45.630;8.886;2022-11-30T00:48:50;4.10;99.90
34406;DHT22;20658;45.630;8.886;2022-11-30T00:51:20;4.10;99.90
34406;DHT22;20658;45.630;8.886;2022-11-30T00:53:48;4.10;99.90
34406;DHT22;20658;45.630;8.886;2022-11-30T00:56:17;4.00;99.90
34406;DHT22;20658;45.630;8.886;2022-11-30T00:58:45;4.00;99.90
34406;DHT22;20658;45.630;8.886;2022-11-30T01:01:15;4.00;99.90
34406;DHT22;20658;45.630;8.886;2022-11-30T01:03:43;4.40;99.90
34406;DHT22;20658;45.630;8.886;2022-11-30T01:06:12;3.90;99.90
34406;DHT22;20658;45.630;8.886;2022-11-30T01:08:42;3.90;99.90
34406;DHT22;20658;45.630;8.886;2022-11-30T01:11:14;3.90;99.90
34406;DHT22;20658;45.630;8.886;2022-11-30T01:13:49;3.80;99.90
34406;DHT22;20658;45.630;8.886;2022-11-30T01:16:20;4.00;99.90
34406;DHT22;20658;45.630;8.886;2022-11-30T01:18:49;3.70;99.90
34406;DHT22;20658;45.630;8.886;2022-11-30T01:21:20;3.80;99.90
34406;DHT22;20658;45.630;8.886;2022-11-30T01:23:52;3.70;99.90
34406;DHT22;20658;45.630;8.886;2022-11-30T01:26:22;3.70;99.90
34406;DHT22;20658;45.630;8.886;2022-11-30T01:28:52;3.70;99.90
34406;DHT22;20658;45.630;8.886;2022-11-30T01:31:22;3.70;99.90
34406;DHT22;20658;45.630;8.886;2022-11-30T01:33:52;3.60;99.90
34406;DHT22;20658;45.630;8.886;2022-11-30T01:36:23;3.60;99.90
34406;DHT22;20658;45.630;8.886;2022-11-30T01:38:56;3.60;99.90
34406;DHT22;20658;45.630;8.886;2022-11-30T01:41:26;3.60;99.90
34406;DHT22;20658;45.630;8.886;2022-11-30T01:44:36;3.50;99.90
34406;DHT22;20658;45.630;8.886;2022-11-30T01:47:15;3.60;99.90
34406;DHT22;20658;45.630;8.886;2022-11-30T01:49:46;3.50;99.90
34406;DHT22;20658;45.630;8.886;2022-11-30T01:52:25;3.50;99.90
34406;DHT22;20658;45.630;8.886;2022-11-30T01:55:09;3.50;99.90
34406;DHT22;20658;45.630;8.886;2022-11-30T01:57:45;3.50;99.90
34406;DHT22;20658;45.630;8.886;2022-11-30T02:00:15;3.50;99.90
34406;DHT22;20658;45.630;8.886;2022-11-30T02:02:52;3.40;99.90
34406;DHT22;20658;45.630;8.886;2022-11-30T02:05:24;3.40;99.90
34406;DHT22;20658;45.630;8.886;2022-11-30T02:07:53;3.30;99.90
34406;DHT22;20658;45.630;8.886;2022-11-30T02:10:30;3.30;99.90
34406;DHT22;20658;45.630;8.886;2022-11-30T02:13:22;3.30;99.90
34406;DHT22;20658;45.630;8.886;2022-11-30T02:16:21;3.30;99.90
34406;DHT22;20658;45.630;8.886;2022-11-30T02:19:06;3.20;99.90
34406;DHT22;20658;45.630;8.886;2022-11-30T02:21:52;3.40;99.90
34406;DHT22;20658;45.630;8.886;2022-11-30T02:24:35;3.70;99.90
34406;DHT22;20658;45.630;8.886;2022-11-30T02:27:22;3.20;99.90
34406;DHT22;20658;45.630;8.886;2022-11-30T02:30:02;3.50;99.90
34406;DHT22;20658;45.630;8.886;2022-11-30T02:32:37;3.10;99.90
34406;DHT22;20658;45.630;8.886;2022-11-30T02:35:09;3.10;99.90
34406;DHT22;20658;45.630;8.886;2022-11-30T02:37:39;3.10;99.90
34406;DHT22;20658;45.630;8.886;2022-11-30T02:40:12;3.00;99.90
34406;DHT22;20658;45.630;8.886;2022-11-30T02:42:42;3.00;99.90
34406;DHT22;20658;45.630;8.886;2022-11-30T02:45:12;3.00;99.90
34406;DHT22;20658;45.630;8.886;2022-11-30T02:47:44;3.00;99.90
34406;DHT22;20658;45.630;8.886;2022-11-30T02:50:17;3.10;99.90
34406;DHT22;20658;45.630;8.886;2022-11-30T02:52:49;2.90;99.90
34406;DHT22;20658;45.630;8.886;2022-11-30T02:55:19;2.90;99.90
34406;DHT22;20658;45.630;8.886;2022-11-30T02:57:47;2.80;99.90
34406;DHT22;20658;45.630;8.886;2022-11-30T03:00:18;2.80;99.90
34406;DHT22;20658;45.630;8.886;2022-11-30T03:02:47;2.80;99.90
34406;DHT22;20658;45.630;8.886;2022-11-30T03:05:16;2.80;99.90
34406;DHT22;20658;45.630;8.886;2022-11-30T03:07:44;2.80;99.90
34406;DHT22;20658;45.630;8.886;2022-11-30T03:10:13;2.80;99.90
34406;DHT22;20658;45.630;8.886;2022-11-30T03:12:42;2.80;99.90
34406;DHT22;20658;45.630;8.886;2022-11-30T03:15:10;2.70;99.90
34406;DHT22;20658;45.630;8.886;2022-11-30T03:17:40;2.70;99.90
34406;DHT22;20658;45.630;8.886;2022-11-30T03:20:09;2.90;99.90
34406;DHT22;20658;45.630;8.886;2022-11-30T03:22:38;2.70;99.90
34406;DHT22;20658;45.630;8.886;2022-11-30T03:25:07;2.70;99.90
34406;DHT22;20658;45.630;8.886;2022-11-30T03:27:36;2.70;99.90
34406;DHT22;20658;45.630;8.886;2022-11-30T03:30:10;2.70;99.90
34406;DHT22;20658;45.630;8.886;2022-11-30T03:32:41;2.70;99.90
34406;DHT22;20658;45.630;8.886;2022-11-30T03:35:09;2.60;99.90
34406;DHT22;20658;45.630;8.886;2022-11-30T03:37:43;2.60;99.90
34406;DHT22;20658;45.630;8.886;2022-11-30T03:40:16;2.60;99.90
34406;DHT22;20658;45.630;8.886;2022-11-30T03:42:45;2.60;99.90
34406;DHT22;20658;45.630;8.886;2022-11-30T03:45:14;2.60;99.90
34406;DHT22;20658;45.630;8.886;2022-11-30T03:47:44;2.50;99.90
34406;DHT22;20658;45.630;8.886;2022-11-30T03:50:13;2.50;99.90
34406;DHT22;20658;45.630;8.886;2022-11-30T03:52:41;2.50;99.90
34406;DHT22;20658;45.630;8.886;2022-11-30T03:55:10;2.40;99.90
34406;DHT22;20658;45.630;8.886;2022-11-30T03:57:39;2.70;99.90
34406;DHT22;20658;45.630;8.886;2022-11-30T04:00:08;2.40;99.90
34406;DHT22;20658;45.630;8.886;2022-11-30T04:02:38;2.20;99.90
34406;DHT22;20658;45.630;8.886;2022-11-30T04:05:08;2.20;99.90
34406;DHT22;20658;45.630;8.886;2022-11-30T04:07:37;2.10;99.90
34406;DHT22;20658;45.630;8.886;2022-11-30T04:10:06;2.10;99.90
34406;DHT22;20658;45.630;8.886;2022-11-30T04:12:36;2.10;99.90
34406;DHT22;20658;45.630;8.886;2022-11-30T04:15:05;2.10;99.90
34406;DHT22;20658;45.630;8.886;2022-11-30T04:17:34;2.10;99.90
34406;DHT22;20658;45.630;8.886;2022-11-30T04:20:04;2.10;99.90
34406;DHT22;20658;45.630;8.886;2022-11-30T04:22:36;2.10;99.90
34406;DHT22;20658;45.630;8.886;2022-11-30T04:25:06;2.10;99.90
34406;DHT22;20658;45.630;8.886;2022-11-30T04:27:35;2.20;99.90
34406;DHT22;20658;45.630;8.886;2022-11-30T04:30:04;2.20;99.90
34406;DHT22;20658;45.630;8.886;2022-11-30T04:32:34;2.30;99.90
34406;DHT22;20658;45.630;8.886;2022-11-30T04:35:08;2.40;99.90
34406;DHT22;20658;45.630;8.886;2022-11-30T04:37:43;2.40;99.90
34406;DHT22;20658;45.630;8.886;2022-11-30T04:40:17;2.40;99.90
34406;DHT22;20658;45.630;8.886;2022-11-30T04:42:45;2.40;99.90
34406;DHT22;20658;45.630;8.886;2022-11-30T04:45:14;2.50;99.90
34406;DHT22;20658;45.630;8.886;2022-11-30T04:47:43;2.50;99.90
34406;DHT22;20658;45.630;8.886;2022-11-30T04:50:12;2.50;99.90
34406;DHT22;20658;45.630;8.886;2022-11-30T04:52:40;2.90;99.90
34406;DHT22;20658;45.630;8.886;2022-11-30T04:55:10;2.60;99.90
34406;DHT22;20658;45.630;8.886;2022-11-30T04:57:39;2.60;99.90
34406;DHT22;20658;45.630;8.886;2022-11-30T05:00:09;2.60;99.90
34406;DHT22;20658;45.630;8.886;2022-11-30T05:02:40;2.60;99.90
34406;DHT22;20658;45.630;8.886;2022-11-30T05:05:09;2.60;99.90
34406;DHT22;20658;45.630;8.886;2022-11-30T05:07:38;2.60;99.90
34406;DHT22;20658;45.630;8.886;2022-11-30T05:10:10;2.50;99.90
34406;DHT22;20658;45.630;8.886;2022-11-30T05:12:39;2.60;99.90
34406;DHT22;20658;45.630;8.886;2022-11-30T05:15:09;2.50;99.90
34406;DHT22;20658;45.630;8.886;2022-11-30T05:17:38;2.60;99.90
34406;DHT22;20658;45.630;8.886;2022-11-30T05:20:07;2.60;99.90
34406;DHT22;20658;45.630;8.886;2022-11-30T05:22:36;2.60;99.90
34406;DHT22;20658;45.630;8.886;2022-11-30T05:25:11;2.70;99.90
34406;DHT22;20658;45.630;8.886;2022-11-30T05:27:44;3.20;99.90
34406;DHT22;20658;45.630;8.886;2022-11-30T05:30:18;2.70;99.90
34406;DHT22;20658;45.630;8.886;2022-11-30T05:32:52;2.70;99.90
34406;DHT22;20658;45.630;8.886;2022-11-30T05:35:25;2.80;99.90
34406;DHT22;20658;45.630;8.886;2022-11-30T05:37:58;2.80;99.90
34406;DHT22;20658;45.630;8.886;2022-11-30T05:40:28;2.80;99.90
34406;DHT22;20658;45.630;8.886;2022-11-30T05:43:04;2.90;99.90
34406;DHT22;20658;45.630;8.886;2022-11-30T05:45:38;2.80;99.90
34406;DHT22;20658;45.630;8.886;2022-11-30T05:48:12;2.80;99.90
34406;DHT22;20658;45.630;8.886;2022-11-30T05:50:48;2.80;99.90
34406;DHT22;20658;45.630;8.886;2022-11-30T05:53:21;2.90;99.90
34406;DHT22;20658;45.630;8.886;2022-11-30T05:56:00;2.80;99.90
34406;DHT22;20658;45.630;8.886;2022-11-30T05:58:35;2.80;99.90
34406;DHT22;20658;45.630;8.886;2022-11-30T06:01:17;2.80;99.90
34406;DHT22;20658;45.630;8.886;2022-11-30T06:03:51;2.80;99.90
34406;DHT22;20658;45.630;8.886;2022-11-30T06:06:25;2.80;99.90
34406;DHT22;20658;45.630;8.886;2022-11-30T06:08:58;2.80;99.90
34406;DHT22;20658;45.630;8.886;2022-11-30T06:11:33;2.70;99.90
34406;DHT22;20658;45.630;8.886;2022-11-30T06:14:07;2.70;99.90
34406;DHT22;20658;45.630;8.886;2022-11-30T06:16:37;2.70;99.90
34406;DHT22;20658;45.630;8.886;2022-11-30T06:19:06;2.70;99.90
34406;DHT22;20658;45.630;8.886;2022-11-30T06:21:39;2.70;99.90
34406;DHT22;20658;45.630;8.886;2022-11-30T06:24:08;2.60;99.90
34406;DHT22;20658;45.630;8.886;2022-11-30T06:26:43;2.60;99.90
34406;DHT22;20658;45.630;8.886;2022-11-30T06:29:16;2.50;99.90
34406;DHT22;20658;45.630;8.886;2022-11-30T06:31:50;2.50;99.90
34406;DHT22;20658;45.630;8.886;2022-11-30T06:34:23;2.50;99.90
34406;DHT22;20658;45.630;8.886;2022-11-30T06:36:52;2.50;99.90
34406;DHT22;20658;45.630;8.886;2022-11-30T06:39:20;2.50;99.90
34406;DHT22;20658;45.630;8.886;2022-11-30T06:41:55;2.50;99.90
34406;DHT22;20658;45.630;8.886;2022-11-30T06:44:23;3.00;99.90
34406;DHT22;20658;45.630;8.886;2022-11-30T06:46:58;2.40;99.90
34406;DHT22;20658;45.630;8.886;2022-11-30T06:49:26;2.40;99.90
34406;DHT22;20658;45.630;8.886;2022-11-30T06:52:00;2.40;99.90
34406;DHT22;20658;45.630;8.886;2022-11-30T06:54:33;2.40;99.90
34406;DHT22;20658;45.630;8.886;2022-11-30T06:57:08;2.40;99.90
34406;DHT22;20658;45.630;8.886;2022-11-30T06:59:42;2.40;99.90
34406;DHT22;20658;45.630;8.886;2022-11-30T07:02:17;2.40;99.90
34406;DHT22;20658;45.630;8.886;2022-11-30T07:04:50;2.40;99.90
34406;DHT22;20658;45.630;8.886;2022-11-30T07:07:24;2.40;99.90
34406;DHT22;20658;45.630;8.886;2022-11-30T07:09:52;2.40;99.90
34406;DHT22;20658;45.630;8.886;2022-11-30T07:12:27;2.40;99.90
34406;DHT22;20658;45.630;8.886;2022-11-30T07:14:56;2.40;99.90
34406;DHT22;20658;45.630;8.886;2022-11-30T07:17:29;2.40;99.90
34406;DHT22;20658;45.630;8.886;2022-11-30T07:19:58;2.50;99.90
34406;DHT22;20658;45.630;8.886;2022-11-30T07:22:26;2.50;99.90
34406;DHT22;20658;45.630;8.886;2022-11-30T07:24:55;2.60;99.90
34406;DHT22;20658;45.630;8.886;2022-11-30T07:27:42;2.60;99.90
34406;DHT22;20658;45.630;8.886;2022-11-30T07:30:12;2.60;99.90
34406;DHT22;20658;45.630;8.886;2022-11-30T07:32:41;2.70;99.90
34406;DHT22;20658;45.630;8.886;2022-11-30T07:35:09;2.70;99.90
34406;DHT22;20658;45.630;8.886;2022-11-30T07:37:43;2.70;99.90
34406;DHT22;20658;45.630;8.886;2022-11-30T07:40:12;2.90;99.90
34406;DHT22;20658;45.630;8.886;2022-11-30T07:42:42;2.80;99.90
34406;DHT22;20658;45.630;8.886;2022-11-30T07:45:10;3.00;99.90
34406;DHT22;20658;45.630;8.886;2022-11-30T07:47:44;2.90;99.90
34406;DHT22;20658;45.630;8.886;2022-11-30T07:50:15;3.00;99.90
34406;DHT22;20658;45.630;8.886;2022-11-30T07:52:44;3.10;99.90
34406;DHT22;20658;45.630;8.886;2022-11-30T07:55:13;3.10;99.90
34406;DHT22;20658;45.630;8.886;2022-11-30T07:57:43;3.10;99.90
34406;DHT22;20658;45.630;8.886;2022-11-30T08:00:16;3.60;99.90
34406;DHT22;20658;45.630;8.886;2022-11-30T08:02:48;3.30;99.90
34406;DHT22;20658;45.630;8.886;2022-11-30T08:05:17;3.30;99.90
34406;DHT22;20658;45.630;8.886;2022-11-30T08:07:51;3.30;99.90
34406;DHT22;20658;45.630;8.886;2022-11-30T08:10:24;3.30;99.90
34406;DHT22;20658;45.630;8.886;2022-11-30T08:12:55;3.40;99.90
34406;DHT22;20658;45.630;8.886;2022-11-30T08:15:23;3.70;99.90
34406;DHT22;20658;45.630;8.886;2022-11-30T08:17:51;3.50;99.90
34406;DHT22;20658;45.630;8.886;2022-11-30T08:20:21;3.50;99.90
34406;DHT22;20658;45.630;8.886;2022-11-30T08:22:57;3.60;99.90
34406;DHT22;20658;45.630;8.886;2022-11-30T08:25:33;3.70;99.90
34406;DHT22;20658;45.630;8.886;2022-11-30T08:28:03;3.80;99.90
34406;DHT22;20658;45.630;8.886;2022-11-30T08:30:32;3.80;99.90
34406;DHT22;20658;45.630;8.886;2022-11-30T08:33:01;4.10;99.90
34406;DHT22;20658;45.630;8.886;2022-11-30T08:35:29;3.90;99.90
34406;DHT22;20658;45.630;8.886;2022-11-30T08:37:58;3.90;99.90
34406;DHT22;20658;45.630;8.886;2022-11-30T08:40:26;4.00;99.90
34406;DHT22;20658;45.630;8.886;2022-11-30T08:42:54;4.00;99.90
34406;DHT22;20658;45.630;8.886;2022-11-30T08:45:29;4.00;99.90
34406;DHT22;20658;45.630;8.886;2022-11-30T08:47:58;4.10;99.90
34406;DHT22;20658;45.630;8.886;2022-11-30T08:50:31;4.10;99.90
34406;DHT22;20658;45.630;8.886;2022-11-30T08:53:05;4.20;99.90
34406;DHT22;20658;45.630;8.886;2022-11-30T08:55:34;4.30;99.90
34406;DHT22;20658;45.630;8.886;2022-11-30T08:58:07;4.30;99.90
34406;DHT22;20658;45.630;8.886;2022-11-30T09:00:42;4.50;99.90
34406;DHT22;20658;45.630;8.886;2022-11-30T09:03:16;4.50;99.90
34406;DHT22;20658;45.630;8.886;2022-11-30T09:05:49;4.60;99.90
34406;DHT22;20658;45.630;8.886;2022-11-30T09:08:23;4.70;99.90
34406;DHT22;20658;45.630;8.886;2022-11-30T09:10:57;4.70;99.90
34406;DHT22;20658;45.630;8.886;2022-11-30T09:13:30;4.80;99.90
34406;DHT22;20658;45.630;8.886;2022-11-30T09:16:00;4.90;99.90
34406;DHT22;20658;45.630;8.886;2022-11-30T09:18:34;4.90;99.90
34406;DHT22;20658;45.630;8.886;2022-11-30T09:21:05;4.90;99.90
34406;DHT22;20658;45.630;8.886;2022-11-30T09:23:39;4.90;99.90
34406;DHT22;20658;45.630;8.886;2022-11-30T09:26:14;4.90;99.90
34406;DHT22;20658;45.630;8.886;2022-11-30T09:28:49;5.00;99.90
34406;DHT22;20658;45.630;8.886;2022-11-30T09:31:25;5.10;99.90
34406;DHT22;20658;45.630;8.886;2022-11-30T09:33:55;5.10;99.90
34406;DHT22;20658;45.630;8.886;2022-11-30T09:36:29;5.10;99.90
34406;DHT22;20658;45.630;8.886;2022-11-30T09:39:04;5.10;99.90
34406;DHT22;20658;45.630;8.886;2022-11-30T09:42:06;5.20;99.90
34406;DHT22;20658;45.630;8.886;2022-11-30T09:44:53;5.30;99.90
34406;DHT22;20658;45.630;8.886;2022-11-30T09:50:47;5.50;99.90
34406;DHT22;20658;45.630;8.886;2022-11-30T09:53:20;5.60;99.90
34406;DHT22;20658;45.630;8.886;2022-11-30T09:55:52;5.60;99.90
34406;DHT22;20658;45.630;8.886;2022-11-30T09:58:26;5.70;99.90
34406;DHT22;20658;45.630;8.886;2022-11-30T10:01:11;5.70;99.90
34406;DHT22;20658;45.630;8.886;2022-11-30T10:03:45;5.70;99.90
34406;DHT22;20658;45.630;8.886;2022-11-30T10:06:22;5.70;99.90
34406;DHT22;20658;45.630;8.886;2022-11-30T10:09:23;6.00;99.90
34406;DHT22;20658;45.630;8.886;2022-11-30T10:12:00;5.80;99.90
34406;DHT22;20658;45.630;8.886;2022-11-30T10:14:56;5.90;99.90
34406;DHT22;20658;45.630;8.886;2022-11-30T10:17:45;5.90;99.90
34406;DHT22;20658;45.630;8.886;2022-11-30T10:20:48;6.00;99.90
34406;DHT22;20658;45.630;8.886;2022-11-30T10:23:42;6.10;99.90
34406;DHT22;20658;45.630;8.886;2022-11-30T10:26:27;6.10;99.90
34406;DHT22;20658;45.630;8.886;2022-11-30T10:29:05;6.20;99.90
34406;DHT22;20658;45.630;8.886;2022-11-30T10:31:46;6.20;99.90
34406;DHT22;20658;45.630;8.886;2022-11-30T10:34:23;6.20;99.90
34406;DHT22;20658;45.630;8.886;2022-11-30T10:37:03;6.30;99.90
34406;DHT22;20658;45.630;8.886;2022-11-30T10:39:45;6.30;99.90
34406;DHT22;20658;45.630;8.886;2022-11-30T10:42:20;6.30;99.90
34406;DHT22;20658;45.630;8.886;2022-11-30T10:44:59;6.40;99.90
34406;DHT22;20658;45.630;8.886;2022-11-30T10:47:38;6.50;99.90
34406;DHT22;20658;45.630;8.886;2022-11-30T10:50:16;6.50;99.90
34406;DHT22;20658;45.630;8.886;2022-11-30T10:52:53;6.50;99.90
34406;DHT22;20658;45.630;8.886;2022-11-30T10:55:25;6.50;99.90
34406;DHT22;20658;45.630;8.886;2022-11-30T10:58:02;6.50;99.90
34406;DHT22;20658;45.630;8.886;2022-11-30T11:00:51;6.50;99.90
34406;DHT22;20658;45.630;8.886;2022-11-30T11:03:24;6.50;99.90
34406;DHT22;20658;45.630;8.886;2022-11-30T11:06:12;6.50;99.90
34406;DHT22;20658;45.630;8.886;2022-11-30T11:08:49;6.40;99.90
34406;DHT22;20658;45.630;8.886;2022-11-30T11:11:28;6.50;99.90
34406;DHT22;20658;45.630;8.886;2022-11-30T11:14:17;6.50;99.90
34406;DHT22;20658;45.630;8.886;2022-11-30T11:16:53;6.50;99.90
34406;DHT22;20658;45.630;8.886;2022-11-30T11:19:33;6.50;99.90
34406;DHT22;20658;45.630;8.886;2022-11-30T11:22:09;6.50;99.90
34406;DHT22;20658;45.630;8.886;2022-11-30T11:24:49;6.50;99.90
34406;DHT22;20658;45.630;8.886;2022-11-30T11:27:29;6.50;99.90
34406;DHT22;20658;45.630;8.886;2022-11-30T11:30:06;6.50;99.90
34406;DHT22;20658;45.630;8.886;2022-11-30T11:32:56;6.40;99.90
34406;DHT22;20658;45.630;8.886;2022-11-30T11:35:38;6.40;99.90
34406;DHT22;20658;45.630;8.886;2022-11-30T11:38:20;6.50;99.90
34406;DHT22;20658;45.630;8.886;2022-11-30T11:41:00;6.40;99.90
34406;DHT22;20658;45.630;8.886;2022-11-30T11:43:55;6.50;99.90
34406;DHT22;20658;45.630;8.886;2022-11-30T11:46:28;6.50;99.90
34406;DHT22;20658;45.630;8.886;2022-11-30T11:48:59;6.50;99.90
34406;DHT22;20658;45.630;8.886;2022-11-30T11:51:35;6.50;99.90
34406;DHT22;20658;45.630;8.886;2022-11-30T11:54:19;6.50;99.90
34406;DHT22;20658;45.630;8.886;2022-11-30T11:56:58;6.50;99.90
34406;DHT22;20658;45.630;8.886;2022-11-30T11:59:38;6.60;99.90
34406;DHT22;20658;45.630;8.886;2022-11-30T12:02:21;6.60;99.90
34406;DHT22;20658;45.630;8.886;2022-11-30T12:05:03;6.50;99.90
34406;DHT22;20658;45.630;8.886;2022-11-30T12:07:44;6.70;99.90
34406;DHT22;20658;45.630;8.886;2022-11-30T12:10:26;6.50;99.90
34406;DHT22;20658;45.630;8.886;2022-11-30T12:13:08;6.60;99.90
34406;DHT22;20658;45.630;8.886;2022-11-30T12:15:55;6.60;99.90
34406;DHT22;20658;45.630;8.886;2022-11-30T12:18:37;6.60;99.90
34406;DHT22;20658;45.630;8.886;2022-11-30T12:21:26;6.80;99.90
34406;DHT22;20658;45.630;8.886;2022-11-30T12:24:37;6.70;99.90
34406;DHT22;20658;45.630;8.886;2022-11-30T12:27:21;6.70;99.90
34406;DHT22;20658;45.630;8.886;2022-11-30T12:30:02;6.70;99.90
34406;DHT22;20658;45.630;8.886;2022-11-30T12:35:50;6.80;99.90
34406;DHT22;20658;45.630;8.886;2022-11-30T12:38:36;6.70;99.90
34406;DHT22;20658;45.630;8.886;2022-11-30T12:41:30;6.80;99.90
34406;DHT22;20658;45.630;8.886;2022-11-30T12:44:17;7.00;99.90
34406;DHT22;20658;45.630;8.886;2022-11-30T12:47:06;6.80;99.90
34406;DHT22;20658;45.630;8.886;2022-11-30T12:49:53;6.80;99.90
34406;DHT22;20658;45.630;8.886;2022-11-30T12:52:40;6.70;99.90
34406;DHT22;20658;45.630;8.886;2022-11-30T12:55:25;6.80;99.90
34406;DHT22;20658;45.630;8.886;2022-11-30T12:58:10;6.80;99.90
34406;DHT22;20658;45.630;8.886;2022-11-30T13:00:55;6.80;99.90
34406;DHT22;20658;45.630;8.886;2022-11-30T13:03:52;6.80;99.90
34406;DHT22;20658;45.630;8.886;2022-11-30T13:06:33;6.80;99.90
34406;DHT22;20658;45.630;8.886;2022-11-30T13:09:09;6.80;99.90
34406;DHT22;20658;45.630;8.886;2022-11-30T13:11:52;6.80;99.90
34406;DHT22;20658;45.630;8.886;2022-11-30T13:14:29;6.80;99.90
34406;DHT22;20658;45.630;8.886;2022-11-30T13:17:04;7.20;99.90
34406;DHT22;20658;45.630;8.886;2022-11-30T13:19:48;6.80;99.90
34406;DHT22;20658;45.630;8.886;2022-11-30T13:22:34;6.80;99.90
34406;DHT22;20658;45.630;8.886;2022-11-30T13:25:19;6.80;99.90
34406;DHT22;20658;45.630;8.886;2022-11-30T13:28:05;6.80;99.90
34406;DHT22;20658;45.630;8.886;2022-11-30T13:30:43;6.80;99.90
34406;DHT22;20658;45.630;8.886;2022-11-30T13:33:36;6.80;99.90
34406;DHT22;20658;45.630;8.886;2022-11-30T13:36:35;6.80;99.90
34406;DHT22;20658;45.630;8.886;2022-11-30T13:42:34;6.80;99.90
34406;DHT22;20658;45.630;8.886;2022-11-30T13:45:28;6.80;99.90
34406;DHT22;20658;45.630;8.886;2022-11-30T13:48:25;6.70;99.90
34406;DHT22;20658;45.630;8.886;2022-11-30T13:51:03;6.70;99.90
34406;DHT22;20658;45.630;8.886;2022-11-30T13:53:39;6.80;99.90
34406;DHT22;20658;45.630;8.886;2022-11-30T13:56:33;6.70;99.90
34406;DHT22;20658;45.630;8.886;2022-11-30T13:59:34;6.70;99.90
34406;DHT22;20658;45.630;8.886;2022-11-30T14:05:40;6.60;99.90
34406;DHT22;20658;45.630;8.886;2022-11-30T14:11:37;6.50;99.90
34406;DHT22;20658;45.630;8.886;2022-11-30T14:14:43;6.50;99.90
34406;DHT22;20658;45.630;8.886;2022-11-30T14:17:20;6.50;99.90
34406;DHT22;20658;45.630;8.886;2022-11-30T14:19:58;6.50;99.90
34406;DHT22;20658;45.630;8.886;2022-11-30T14:22:33;6.50;99.90
34406;DHT22;20658;45.630;8.886;2022-11-30T14:25:02;6.50;99.90
34406;DHT22;20658;45.630;8.886;2022-11-30T14:27:38;6.50;99.90
34406;DHT22;20658;45.630;8.886;2022-11-30T14:30:15;6.40;99.90
34406;DHT22;20658;45.630;8.886;2022-11-30T14:32:53;6.40;99.90
34406;DHT22;20658;45.630;8.886;2022-11-30T14:35:23;6.40;99.90
34406;DHT22;20658;45.630;8.886;2022-11-30T14:38:00;6.50;99.90
34406;DHT22;20658;45.630;8.886;2022-11-30T14:40:29;6.90;99.90
34406;DHT22;20658;45.630;8.886;2022-11-30T14:43:01;6.40;99.90
34406;DHT22;20658;45.630;8.886;2022-11-30T14:45:32;6.30;99.90
34406;DHT22;20658;45.630;8.886;2022-11-30T14:48:07;6.30;99.90
34406;DHT22;20658;45.630;8.886;2022-11-30T14:50:47;6.30;99.90
34406;DHT22;20658;45.630;8.886;2022-11-30T14:53:29;6.40;99.90
34406;DHT22;20658;45.630;8.886;2022-11-30T14:56:15;6.30;99.90
34406;DHT22;20658;45.630;8.886;2022-11-30T14:58:54;6.30;99.90
34406;DHT22;20658;45.630;8.886;2022-11-30T15:01:29;6.30;99.90
34406;DHT22;20658;45.630;8.886;2022-11-30T15:04:04;6.30;99.90
34406;DHT22;20658;45.630;8.886;2022-11-30T15:06:42;6.30;99.90
34406;DHT22;20658;45.630;8.886;2022-11-30T15:09:14;6.30;99.90
34406;DHT22;20658;45.630;8.886;2022-11-30T15:11:46;6.20;99.90
34406;DHT22;20658;45.630;8.886;2022-11-30T15:14:17;6.30;99.90
34406;DHT22;20658;45.630;8.886;2022-11-30T15:16:47;6.10;99.90
34406;DHT22;20658;45.630;8.886;2022-11-30T15:19:21;6.00;99.90
34406;DHT22;20658;45.630;8.886;2022-11-30T15:21:57;6.00;99.90
34406;DHT22;20658;45.630;8.886;2022-11-30T15:24:26;6.00;99.90
34406;DHT22;20658;45.630;8.886;2022-11-30T15:26:56;6.00;99.90
34406;DHT22;20658;45.630;8.886;2022-11-30T15:29:34;6.00;99.90
34406;DHT22;20658;45.630;8.886;2022-11-30T15:32:14;6.00;99.90
34406;DHT22;20658;45.630;8.886;2022-11-30T15:34:46;6.00;99.90
34406;DHT22;20658;45.630;8.886;2022-11-30T15:37:27;6.40;99.90
34406;DHT22;20658;45.630;8.886;2022-11-30T15:39:59;6.00;99.90
34406;DHT22;20658;45.630;8.886;2022-11-30T15:42:29;6.00;99.90
34406;DHT22;20658;45.630;8.886;2022-11-30T15:45:15;5.90;99.90
34406;DHT22;20658;45.630;8.886;2022-11-30T15:47:53;5.90;99.90
34406;DHT22;20658;45.630;8.886;2022-11-30T15:50:36;5.90;99.90
34406;DHT22;20658;45.630;8.886;2022-11-30T15:53:27;5.90;99.90
34406;DHT22;20658;45.630;8.886;2022-11-30T15:56:06;5.90;99.90
34406;DHT22;20658;45.630;8.886;2022-11-30T15:58:38;5.90;99.90
34406;DHT22;20658;45.630;8.886;2022-11-30T16:01:15;5.80;99.90
34406;DHT22;20658;45.630;8.886;2022-11-30T16:04:00;5.70;99.90
34406;DHT22;20658;45.630;8.886;2022-11-30T16:06:43;5.70;99.90
34406;DHT22;20658;45.630;8.886;2022-11-30T16:09:18;5.60;99.90
34406;DHT22;20658;45.630;8.886;2022-11-30T16:11:54;5.50;99.90
34406;DHT22;20658;45.630;8.886;2022-11-30T16:14:28;5.50;99.90
34406;DHT22;20658;45.630;8.886;2022-11-30T16:16:58;5.40;99.90
34406;DHT22;20658;45.630;8.886;2022-11-30T16:19:27;5.40;99.90
34406;DHT22;20658;45.630;8.886;2022-11-30T16:21:55;5.40;99.90
34406;DHT22;20658;45.630;8.886;2022-11-30T16:24:24;5.30;99.90
34406;DHT22;20658;45.630;8.886;2022-11-30T16:26:53;5.30;99.90
34406;DHT22;20658;45.630;8.886;2022-11-30T16:29:21;5.30;99.90
34406;DHT22;20658;45.630;8.886;2022-11-30T16:31:50;5.20;99.90
34406;DHT22;20658;45.630;8.886;2022-11-30T16:34:25;5.20;99.90
34406;DHT22;20658;45.630;8.886;2022-11-30T16:36:53;5.20;99.90
34406;DHT22;20658;45.630;8.886;2022-11-30T16:39:27;5.10;99.90
34406;DHT22;20658;45.630;8.886;2022-11-30T16:41:55;5.10;99.90
34406;DHT22;20658;45.630;8.886;2022-11-30T16:44:24;5.10;99.90
34406;DHT22;20658;45.630;8.886;2022-11-30T16:46:52;5.00;99.90
34406;DHT22;20658;45.630;8.886;2022-11-30T16:49:21;5.00;99.90
34406;DHT22;20658;45.630;8.886;2022-11-30T16:51:51;4.90;99.90